Arpin, Wisconsin
Current Conditions -  °F | °C
As of 1:54 AM on Sunday 26 Oct 2014 (Local Time) from KMFI Reporting Station
Clear Clear  
Wind Chill: 35°   Ceiling: Unl
Heat Index: 39°   Visibility: 10mi
Dew Point: 27°   Wind: 6mph
Humidity: 62%   Direction: 290°WNW
Pressure: 29.99"   Gusts: NA
Location:  44.54°N, 90.04°W
Report Text: KMFI 260654Z AUTO 29005KT 10SM CLR 04/M03 A2999 RMK AO2 SLP162 T00391028
Loading
Personal Weather Stations






























Interactive Weather Map
Tropical Storm Tracking
New forecast layout! Learn more

10-Day Weather Forecast

Advertisements
Track Severe Weather on mobile